Time;durP1;ratioP1;P1;durP2;ratioP2;P2;SDS_P1;SDS_P2;PMS_P1;PMS_P2;Temp;Humidity;BMP_temperature;BMP_pressure;BME280_temperature;BME280_humidity;BME280_pressure;Samples;Min_cycle;Max_cycle;Signal;HPM_P1;HPM_P2
2021/04/08 00:01:26;;;;;;;1.88;0.40;;;3.20;31.20;;;;;;5061816;28;20070;-72
2021/04/08 00:03:52;;;;;;;1.52;0.40;;;3.20;29.90;;;;;;5079624;28;20021;-72
2021/04/08 00:06:17;;;;;;;0.55;0.40;;;3.30;31.40;;;;;;5079424;28;20052;-72
2021/04/08 00:08:43;;;;;;;0.93;0.30;;;3.20;30.80;;;;;;5079444;28;20056;-72
2021/04/08 00:11:09;;;;;;;1.08;0.28;;;3.20;30.70;;;;;;5079434;28;20051;-72
2021/04/08 00:13:35;;;;;;;2.20;0.75;;;3.20;33.20;;;;;;5079142;28;20012;-72
2021/04/08 00:16:02;;;;;;;0.40;0.25;;;3.00;34.30;;;;;;5079177;28;20086;-72
2021/04/08 00:18:28;;;;;;;0.55;0.32;;;2.90;33.70;;;;;;5079490;28;20476;-72
2021/04/08 00:20:54;;;;;;;1.25;0.63;;;2.90;34.10;;;;;;5079144;28;20059;-72
2021/04/08 00:23:19;;;;;;;0.38;0.30;;;2.80;36.70;;;;;;5078960;28;20107;-72
2021/04/08 00:25:45;;;;;;;0.77;0.35;;;2.60;32.40;;;;;;5079302;28;20389;-72
2021/04/08 00:28:11;;;;;;;0.50;0.30;;;2.70;33.20;;;;;;5079025;28;20324;-72
2021/04/08 00:30:43;;;;;;;0.38;0.30;;;2.70;30.80;;;;;;5079011;28;20404;-72
2021/04/08 00:33:15;;;;;;;0.80;0.30;;;2.90;32.20;;;;;;5079230;28;20021;-72
2021/04/08 00:35:42;;;;;;;0.70;0.40;;;2.90;34.10;;;;;;5078754;28;20028;-72
2021/04/08 00:38:08;;;;;;;1.48;0.30;;;2.70;34.50;;;;;;5078819;28;20023;-72
2021/04/08 00:40:35;;;;;;;1.50;0.30;;;2.70;32.80;;;;;;5078819;28;20020;-72
2021/04/08 00:43:02;;;;;;;0.40;0.28;;;2.90;32.40;;;;;;5078740;28;20044;-72
2021/04/08 00:45:28;;;;;;;0.63;0.30;;;2.90;31.20;;;;;;5078625;28;20032;-72
2021/04/08 00:47:53;;;;;;;1.00;0.50;;;2.90;31.80;;;;;;5078638;28;20043;-72
2021/04/08 00:50:20;;;;;;;0.73;0.38;;;2.90;32.70;;;;;;5060695;28;20040;-72
2021/04/08 00:52:51;;;;;;;2.42;0.40;;;3.00;30.80;;;;;;5078835;28;20067;-72
2021/04/08 00:55:18;;;;;;;0.88;0.30;;;3.10;30.90;;;;;;5078114;28;20029;-72
2021/04/08 00:57:45;;;;;;;0.50;0.30;;;3.20;30.60;;;;;;5078305;28;20120;-72
2021/04/08 01:00:11;;;;;;;1.00;0.47;;;3.20;31.20;;;;;;5078355;28;20027;-72
2021/04/08 01:02:37;;;;;;;0.93;0.40;;;3.20;31.10;;;;;;5078322;28;20021;-72
2021/04/08 01:05:04;;;;;;;0.68;0.40;;;3.30;30.50;;;;;;5078266;28;20029;-72
2021/04/08 01:07:32;;;;;;;0.80;0.40;;;3.40;30.60;;;;;;5078483;28;20078;-72
2021/04/08 01:09:59;;;;;;;1.65;0.47;;;3.40;30.00;;;;;;5078461;28;20321;-72
2021/04/08 01:12:25;;;;;;;0.90;0.43;;;3.40;30.00;;;;;;5078152;28;20033;-72
2021/04/08 01:14:51;;;;;;;1.73;0.40;;;3.40;30.00;;;;;;5077917;28;20035;-72
2021/04/08 01:17:25;;;;;;;0.45;0.30;;;3.40;30.30;;;;;;5078295;28;20035;-72
2021/04/08 01:20:03;;;;;;;0.52;0.30;;;3.40;30.60;;;;;;5077977;28;20020;-72
2021/04/08 01:22:47;;;;;;;1.65;0.98;;;3.40;31.60;;;;;;5078539;28;20153;-72
2021/04/08 01:25:41;;;;;;;0.50;0.30;;;3.40;32.70;;;;;;5077822;28;20029;-72
2021/04/08 01:28:39;;;;;;;1.02;0.40;;;3.10;35.30;;;;;;5077819;28;20035;-72
2021/04/08 01:31:08;;;;;;;0.43;0.20;;;3.00;30.80;;;;;;5077736;28;20031;-72
2021/04/08 01:33:38;;;;;;;0.80;0.30;;;3.20;30.90;;;;;;5077906;28;20024;-72
2021/04/08 01:36:10;;;;;;;0.52;0.30;;;3.30;30.60;;;;;;5077592;28;20032;-72
2021/04/08 01:38:42;;;;;;;0.77;0.30;;;3.40;31.40;;;;;;5077595;28;20408;-72
2021/04/08 01:41:08;;;;;;;1.63;0.38;;;3.30;31.50;;;;;;5059881;28;20055;-72
2021/04/08 01:43:43;;;;;;;0.73;0.47;;;3.20;31.20;;;;;;5059779;28;20328;-72
2021/04/08 01:46:12;;;;;;;0.93;0.40;;;3.10;31.90;;;;;;5077751;28;20040;-72
2021/04/08 01:48:38;;;;;;;1.00;0.40;;;3.00;31.80;;;;;;5059734;28;20033;-73
2021/04/08 01:51:07;;;;;;;0.82;0.30;;;3.00;31.80;;;;;;5059500;28;20047;-72
2021/04/08 01:53:44;;;;;;;1.17;0.43;;;2.90;32.00;;;;;;5077705;28;20033;-72
2021/04/08 01:56:11;;;;;;;0.60;0.40;;;3.00;31.50;;;;;;5077414;28;20111;-72
2021/04/08 01:58:38;;;;;;;1.10;0.45;;;3.10;31.70;;;;;;5077305;28;20317;-72
2021/04/08 02:01:04;;;;;;;0.55;0.30;;;3.10;32.00;;;;;;5059750;28;20316;-72
2021/04/08 02:03:31;;;;;;;0.70;0.38;;;3.10;32.90;;;;;;5077371;28;20033;-72
2021/04/08 02:05:57;;;;;;;1.65;0.30;;;3.00;32.10;;;;;;5077138;28;20028;-72
2021/04/08 02:08:26;;;;;;;0.80;0.40;;;3.00;33.20;;;;;;5076445;28;20028;-72
2021/04/08 02:10:52;;;;;;;1.00;0.50;;;3.00;33.50;;;;;;5077221;28;20021;-72
2021/04/08 02:13:18;;;;;;;1.08;0.40;;;2.90;33.70;;;;;;5059218;28;20047;-72
2021/04/08 02:15:45;;;;;;;0.63;0.40;;;2.90;34.10;;;;;;5076944;28;20020;-72
2021/04/08 02:18:16;;;;;;;0.95;0.50;;;2.90;33.10;;;;;;5076954;28;20033;-72
2021/04/08 02:20:43;;;;;;;0.50;0.30;;;2.90;33.20;;;;;;5076977;28;20017;-72
2021/04/08 02:23:10;;;;;;;0.82;0.35;;;3.00;33.90;;;;;;5077216;28;20025;-72
2021/04/08 02:25:37;;;;;;;1.10;0.40;;;2.90;32.80;;;;;;5077017;28;20033;-74
2021/04/08 02:28:08;;;;;;;0.93;0.40;;;3.00;32.40;;;;;;5076766;28;20028;-75
2021/04/08 02:30:46;;;;;;;0.52;0.38;;;3.00;31.70;;;;;;5076896;28;20025;-74
2021/04/08 02:33:23;;;;;;;1.98;0.40;;;3.10;31.70;;;;;;5076758;28;20024;-74
2021/04/08 02:35:49;;;;;;;0.38;0.22;;;3.10;32.30;;;;;;5076961;28;20025;-75
2021/04/08 02:38:17;;;;;;;0.57;0.35;;;3.20;32.20;;;;;;5076727;28;20436;-74
2021/04/08 02:40:43;;;;;;;1.92;0.50;;;3.30;31.80;;;;;;5076687;28;20043;-72
2021/04/08 02:43:10;;;;;;;0.75;0.40;;;3.30;31.90;;;;;;5076624;28;20408;-72
2021/04/08 02:45:36;;;;;;;1.08;0.52;;;3.30;31.90;;;;;;5076591;28;20443;-72
2021/04/08 02:48:06;;;;;;;0.52;0.32;;;3.30;31.50;;;;;;5076839;28;20029;-72
2021/04/08 02:50:32;;;;;;;0.80;0.30;;;3.30;32.20;;;;;;5076511;28;20067;-72
2021/04/08 02:53:06;;;;;;;0.80;0.40;;;3.20;33.30;;;;;;5076474;28;20064;-72
2021/04/08 02:55:54;;;;;;;2.55;0.30;;;2.90;33.30;;;;;;5076438;28;20412;-72
2021/04/08 02:58:23;;;;;;;2.15;0.25;;;2.70;34.50;;;;;;5058776;28;20363;-72
2021/04/08 03:00:53;;;;;;;0.52;0.38;;;2.70;34.30;;;;;;5058761;28;20316;-72
2021/04/08 03:03:22;;;;;;;0.90;0.30;;;2.60;33.10;;;;;;5076419;28;20103;-72
2021/04/08 03:05:49;;;;;;;0.70;0.30;;;2.70;34.70;;;;;;5076440;28;20055;-72
2021/04/08 03:08:18;;;;;;;0.90;0.50;;;2.70;35.10;;;;;;5076672;28;20032;-72
2021/04/08 03:10:45;;;;;;;1.63;0.50;;;2.50;35.60;;;;;;5076377;28;20020;-72
2021/04/08 03:13:12;;;;;;;0.68;0.40;;;2.30;35.80;;;;;;5076663;28;20028;-72
2021/04/08 03:15:39;;;;;;;1.42;0.40;;;2.00;37.50;;;;;;5076590;28;20036;-72
2021/04/08 03:18:10;;;;;;;1.42;0.30;;;1.80;37.80;;;;;;5076290;28;20024;-72
2021/04/08 03:20:38;;;;;;;1.08;0.40;;;1.60;39.10;;;;;;5079394;28;20040;-72
2021/04/08 03:23:10;;;;;;;1.42;0.30;;;1.40;38.60;;;;;;5080645;28;20039;-72
2021/04/08 03:25:38;;;;;;;0.82;0.40;;;1.40;40.10;;;;;;5080186;28;20419;-72
2021/04/08 03:28:06;;;;;;;0.32;0.22;;;1.20;40.20;;;;;;5080164;28;20351;-72
2021/04/08 03:30:33;;;;;;;0.63;0.40;;;1.20;39.90;;;;;;5080103;28;20021;-72
2021/04/08 03:32:59;;;;;;;0.75;0.30;;;1.10;41.20;;;;;;5080045;28;20029;-72
2021/04/08 03:35:27;;;;;;;0.80;0.45;;;1.10;40.30;;;;;;5079916;28;20035;-72
2021/04/08 03:37:53;;;;;;;0.93;0.45;;;1.10;39.80;;;;;;5062207;28;20028;-72
2021/04/08 03:40:20;;;;;;;0.50;0.40;;;1.20;39.70;;;;;;5079887;28;20027;-72
2021/04/08 03:42:49;;;;;;;0.45;0.30;;;1.20;40.00;;;;;;5079874;28;20024;-72
2021/04/08 03:45:15;;;;;;;0.80;0.40;;;1.20;40.00;;;;;;5079654;28;20103;-72
2021/04/08 03:47:42;;;;;;;0.45;0.20;;;1.30;40.90;;;;;;5079747;28;20032;-74
2021/04/08 03:50:10;;;;;;;1.08;0.43;;;1.20;41.60;;;;;;5079709;28;20343;-74
2021/04/08 03:52:38;;;;;;;0.30;0.22;;;1.20;42.60;;;;;;5080038;28;20060;-74
2021/04/08 03:55:05;;;;;;;0.82;0.47;;;1.10;42.60;;;;;;5079467;28;20047;-74
2021/04/08 03:57:33;;;;;;;0.85;0.50;;;1.00;44.20;;;;;;5079877;28;20393;-74
2021/04/08 04:00:00;;;;;;;0.80;0.30;;;0.90;44.50;;;;;;5079596;28;20054;-74
2021/04/08 04:02:26;;;;;;;1.20;0.57;;;0.80;44.70;;;;;;5061697;28;20119;-74
2021/04/08 04:04:52;;;;;;;0.57;0.45;;;0.70;44.10;;;;;;5061663;28;20020;-72
2021/04/08 04:07:18;;;;;;;2.13;0.40;;;0.60;42.60;;;;;;5079643;28;20095;-72
2021/04/08 04:09:44;;;;;;;4.97;0.52;;;0.70;44.00;;;;;;5061664;28;20104;-72
2021/04/08 04:12:14;;;;;;;0.63;0.35;;;0.60;43.40;;;;;;5079581;28;20020;-72
2021/04/08 04:14:44;;;;;;;0.80;0.47;;;0.70;42.10;;;;;;5079244;28;20017;-73
2021/04/08 04:17:27;;;;;;;1.55;0.40;;;0.70;43.00;;;;;;5079265;28;20110;-74
2021/04/08 04:19:54;;;;;;;0.57;0.38;;;0.70;41.90;;;;;;5079318;28;20027;-74
2021/04/08 04:22:20;;;;;;;0.68;0.40;;;0.80;40.80;;;;;;5079227;28;20025;-74
2021/04/08 04:24:46;;;;;;;0.40;0.30;;;0.90;42.00;;;;;;5061329;28;20024;-74
2021/04/08 04:27:13;;;;;;;1.85;0.40;;;0.90;42.60;;;;;;5079070;28;20051;-74
2021/04/08 04:29:39;;;;;;;1.15;0.40;;;0.80;43.40;;;;;;5079124;28;20101;-74
2021/04/08 04:32:07;;;;;;;0.55;0.30;;;0.80;41.80;;;;;;5060153;28;20035;-74
2021/04/08 04:34:33;;;;;;;0.60;0.32;;;0.90;39.70;;;;;;5061083;28;20029;-74
2021/04/08 04:36:58;;;;;;;1.83;0.40;;;1.00;41.50;;;;;;5061026;28;20055;-74
2021/04/08 04:39:24;;;;;;;2.03;0.40;;;1.00;40.00;;;;;;5078829;28;20302;-74
2021/04/08 04:41:50;;;;;;;0.90;0.40;;;1.00;40.80;;;;;;5079035;28;20356;-74
2021/04/08 04:44:15;;;;;;;0.95;0.40;;;1.10;39.30;;;;;;5078675;28;20032;-74
2021/04/08 04:46:41;;;;;;;0.65;0.38;;;1.30;37.60;;;;;;5078712;28;20024;-74
2021/04/08 04:49:07;;;;;;;0.52;0.40;;;1.40;37.10;;;;;;5078872;28;20024;-72
2021/04/08 04:51:32;;;;;;;2.55;0.43;;;1.70;37.00;;;;;;5078421;28;20333;-72
2021/04/08 04:53:58;;;;;;;2.63;0.40;;;1.90;36.80;;;;;;5078979;28;20439;-73
2021/04/08 04:56:24;;;;;;;1.42;1.10;;;2.10;36.80;;;;;;5060691;28;20036;-74
2021/04/08 04:58:50;;;;;;;0.88;0.40;;;2.30;36.30;;;;;;5078416;28;20620;-74
2021/04/08 05:01:16;;;;;;;0.60;0.40;;;2.50;35.70;;;;;;5060722;28;20021;-74
2021/04/08 05:03:41;;;;;;;0.55;0.20;;;2.60;35.80;;;;;;5078313;28;20404;-74
2021/04/08 05:06:07;;;;;;;1.27;0.43;;;2.70;35.90;;;;;;5078367;28;20323;-74
2021/04/08 05:08:33;;;;;;;2.92;0.50;;;2.70;37.90;;;;;;5078205;28;20028;-72
2021/04/08 05:10:58;;;;;;;4.60;0.40;;;2.60;38.00;;;;;;5078417;28;20035;-72
2021/04/08 05:13:24;;;;;;;1.13;0.50;;;2.50;37.80;;;;;;5078143;28;20032;-72
2021/04/08 05:15:50;;;;;;;0.75;0.40;;;2.40;35.90;;;;;;5078345;28;20375;-72
2021/04/08 05:18:15;;;;;;;0.73;0.40;;;2.50;36.10;;;;;;5078109;28;20047;-72
2021/04/08 05:20:42;;;;;;;0.60;0.40;;;2.70;36.10;;;;;;5078011;28;20020;-72
2021/04/08 05:23:08;;;;;;;0.38;0.30;;;3.00;35.60;;;;;;5078370;28;20036;-72
2021/04/08 05:25:34;;;;;;;1.17;0.50;;;3.20;35.50;;;;;;5077830;28;20313;-72
2021/04/08 05:28:00;;;;;;;0.90;0.47;;;3.30;34.90;;;;;;5077900;28;20074;-72
2021/04/08 05:30:26;;;;;;;2.15;0.68;;;3.40;35.20;;;;;;5078094;28;20028;-72
2021/04/08 05:32:51;;;;;;;2.30;0.80;;;3.40;37.90;;;;;;5060317;28;20416;-72
2021/04/08 05:35:18;;;;;;;3.50;1.40;;;3.10;40.10;;;;;;5077524;28;20031;-72
2021/04/08 05:37:43;;;;;;;4.00;1.15;;;2.80;42.20;;;;;;5059911;28;20027;-72
2021/04/08 05:40:09;;;;;;;2.22;0.90;;;2.50;45.40;;;;;;5077920;28;20324;-72
2021/04/08 05:42:35;;;;;;;1.30;0.70;;;2.30;46.50;;;;;;5077314;28;20020;-72
2021/04/08 05:45:01;;;;;;;4.13;1.10;;;2.20;44.90;;;;;;5077451;28;20028;-72
2021/04/08 05:47:26;;;;;;;3.28;1.30;;;2.10;47.70;;;;;;5077703;28;20035;-73
2021/04/08 05:49:52;;;;;;;3.28;1.40;;;2.20;52.90;;;;;;5077354;28;20344;-74
2021/04/08 05:52:18;;;;;;;3.60;1.35;;;2.30;53.40;;;;;;5077282;28;20320;-72
2021/04/08 05:54:43;;;;;;;3.75;1.50;;;2.30;54.40;;;;;;5077290;28;20032;-72
2021/04/08 05:57:09;;;;;;;2.08;1.60;;;2.30;54.30;;;;;;5077268;28;20021;-72
2021/04/08 05:59:35;;;;;;;3.97;1.63;;;2.40;54.50;;;;;;5077495;28;20035;-72
2021/04/08 06:02:00;;;;;;;2.42;1.42;;;2.50;53.60;;;;;;5077378;28;20108;-72
2021/04/08 06:04:26;;;;;;;2.67;1.33;;;2.60;51.80;;;;;;5077140;28;20027;-72
2021/04/08 06:06:52;;;;;;;2.50;1.35;;;2.70;52.70;;;;;;5077396;28;20427;-73
2021/04/08 06:09:18;;;;;;;1.33;1.00;;;2.80;51.90;;;;;;5077156;28;20036;-74
2021/04/08 06:11:43;;;;;;;2.30;1.20;;;2.80;49.70;;;;;;5077061;28;20482;-72
2021/04/08 06:14:09;;;;;;;3.15;1.60;;;2.80;49.60;;;;;;5077208;28;20033;-72
2021/04/08 06:16:35;;;;;;;3.97;1.52;;;2.90;51.00;;;;;;5076939;28;20347;-72
2021/04/08 06:19:01;;;;;;;2.42;1.25;;;3.00;52.50;;;;;;5077205;28;20032;-72
2021/04/08 06:21:27;;;;;;;2.85;1.30;;;3.00;51.50;;;;;;5077505;28;20104;-72
2021/04/08 06:23:53;;;;;;;3.95;1.40;;;3.20;51.20;;;;;;5077274;28;20100;-72
2021/04/08 06:26:20;;;;;;;3.25;1.17;;;3.30;51.40;;;;;;5059124;28;20058;-72
2021/04/08 06:28:45;;;;;;;2.70;1.00;;;3.40;48.90;;;;;;5077097;28;20108;-72
2021/04/08 06:31:12;;;;;;;2.17;1.10;;;3.60;47.90;;;;;;5076810;28;20075;-73
2021/04/08 06:33:37;;;;;;;2.55;1.20;;;3.80;47.60;;;;;;5076992;28;20107;-74
2021/04/08 06:36:04;;;;;;;3.90;1.23;;;4.10;49.70;;;;;;5076692;28;20060;-74
2021/04/08 06:38:29;;;;;;;2.75;1.55;;;4.20;48.00;;;;;;5076842;28;20310;-74
2021/04/08 06:40:55;;;;;;;3.30;1.30;;;4.30;47.90;;;;;;5076715;28;20086;-74
2021/04/08 06:43:21;;;;;;;2.35;1.10;;;4.50;46.70;;;;;;5076575;28;20096;-74
2021/04/08 06:45:49;;;;;;;3.63;1.15;;;4.80;47.70;;;;;;5076633;28;20083;-74
2021/04/08 06:48:23;;;;;;;2.80;1.27;;;5.10;47.80;;;;;;5076907;28;20020;-74
2021/04/08 06:50:51;;;;;;;2.33;1.25;;;5.40;46.30;;;;;;5076651;28;20109;-74
2021/04/08 06:53:17;;;;;;;1.75;0.90;;;5.50;45.50;;;;;;5077234;28;20462;-74
2021/04/08 06:55:46;;;;;;;2.40;1.13;;;5.60;44.20;;;;;;5082851;28;20150;-74
2021/04/08 06:58:12;;;;;;;1.30;0.80;;;5.60;45.10;;;;;;5083257;28;20020;-74
2021/04/08 07:00:38;;;;;;;1.15;0.60;;;5.50;39.20;;;;;;5083296;28;20043;-74
2021/04/08 07:03:04;;;;;;;1.52;0.65;;;5.50;39.90;;;;;;5083187;28;20483;-74
2021/04/08 07:05:30;;;;;;;3.22;1.77;;;5.70;35.30;;;;;;5083107;28;20056;-72
2021/04/08 07:07:56;;;;;;;2.63;1.48;;;5.80;43.80;;;;;;5083392;28;20049;-72
2021/04/08 07:10:21;;;;;;;2.25;1.33;;;5.80;47.90;;;;;;5083384;28;20032;-72
2021/04/08 07:12:50;;;;;;;1.15;0.77;;;5.80;46.00;;;;;;5083358;28;20032;-72
2021/04/08 07:15:18;;;;;;;2.90;1.52;;;5.60;40.30;;;;;;5083175;28;20037;-72
2021/04/08 07:17:44;;;;;;;2.50;1.60;;;5.60;44.50;;;;;;5083294;28;20096;-72
2021/04/08 07:20:10;;;;;;;3.33;1.70;;;5.90;48.20;;;;;;5083012;28;20016;-72
2021/04/08 07:22:36;;;;;;;4.18;2.08;;;6.30;47.50;;;;;;5083205;28;20029;-72
2021/04/08 07:25:01;;;;;;;3.17;2.03;;;6.80;45.50;;;;;;5082841;28;20029;-72
2021/04/08 07:27:33;;;;;;;2.20;1.33;;;7.10;45.10;;;;;;5065115;28;20024;-72
2021/04/08 07:30:00;;;;;;;3.30;1.80;;;7.60;44.30;;;;;;5083035;28;20070;-72
2021/04/08 07:32:40;;;;;;;3.03;1.52;;;8.20;44.10;;;;;;5082907;28;20028;-72
2021/04/08 07:35:16;;;;;;;2.67;1.25;;;9.30;43.00;;;;;;5082833;28;20167;-72
2021/04/08 07:37:43;;;;;;;3.22;1.73;;;10.10;39.90;;;;;;5065116;28;20430;-72
2021/04/08 07:40:17;;;;;;;2.80;1.90;;;10.70;39.80;;;;;;5082882;28;20024;-72
2021/04/08 07:42:45;;;;;;;4.25;1.88;;;11.30;37.80;;;;;;5083097;28;20477;-72
2021/04/08 07:45:29;;;;;;;3.17;1.85;;;11.70;37.40;;;;;;5082933;28;20107;-72
2021/04/08 07:48:03;;;;;;;4.85;1.60;;;11.80;38.40;;;;;;5065056;28;20021;-72
2021/04/08 07:50:30;;;;;;;3.35;1.88;;;12.10;37.30;;;;;;5082708;28;20119;-72
2021/04/08 07:52:57;;;;;;;3.58;1.65;;;12.00;38.40;;;;;;5083242;28;20029;-72
2021/04/08 07:55:29;;;;;;;4.45;1.40;;;12.30;37.10;;;;;;5082576;28;20353;-72
2021/04/08 07:58:06;;;;;;;3.17;1.50;;;12.50;36.90;;;;;;5082756;28;20029;-72
2021/04/08 08:00:35;;;;;;;2.22;1.85;;;12.90;35.30;;;;;;5082693;28;20021;-72
2021/04/08 08:03:04;;;;;;;2.75;1.95;;;12.90;35.40;;;;;;5064919;28;20367;-72
2021/04/08 08:05:51;;;;;;;3.33;2.00;;;13.20;36.20;;;;;;5081367;28;20024;-72
2021/04/08 08:08:19;;;;;;;2.35;1.80;;;13.30;36.10;;;;;;5078878;28;20032;-72
2021/04/08 08:11:05;;;;;;;2.03;1.08;;;13.70;34.50;;;;;;5079249;28;20032;-72
2021/04/08 08:13:49;;;;;;;4.60;1.92;;;13.80;31.60;;;;;;5079433;28;20059;-72
2021/04/08 08:16:19;;;;;;;4.38;1.70;;;14.30;33.00;;;;;;5079537;28;20028;-72
2021/04/08 08:18:46;;;;;;;4.55;1.67;;;14.90;32.50;;;;;;5079725;28;20052;-72
2021/04/08 08:21:17;;;;;;;6.88;2.40;;;15.30;32.50;;;;;;5079181;28;20017;-72
2021/04/08 08:23:47;;;;;;;2.95;2.10;;;15.20;32.80;;;;;;5079577;28;20359;-72
2021/04/08 08:26:36;;;;;;;3.47;2.25;;;15.20;33.20;;;;;;5079084;28;20020;-72
2021/04/08 08:29:11;;;;;;;3.35;2.20;;;15.10;32.50;;;;;;5079176;28;20031;-72
2021/04/08 08:31:44;;;;;;;5.78;3.47;;;15.10;31.80;;;;;;5080014;28;20025;-72
2021/04/08 08:34:13;;;;;;;5.40;3.72;;;14.90;31.70;;;;;;5079090;28;20085;-72
2021/04/08 08:36:41;;;;;;;7.28;4.30;;;15.20;32.80;;;;;;5078843;28;20074;-72
2021/04/08 08:39:10;;;;;;;6.53;4.05;;;15.30;34.30;;;;;;5078957;28;20025;-72
2021/04/08 08:41:37;;;;;;;4.97;3.65;;;15.50;33.10;;;;;;5078680;28;20486;-72
2021/04/08 08:44:05;;;;;;;5.90;3.20;;;15.70;32.10;;;;;;5078628;28;20031;-72
2021/04/08 08:46:31;;;;;;;3.78;2.65;;;15.50;33.00;;;;;;5078867;28;20028;-72
2021/04/08 08:48:59;;;;;;;3.60;2.55;;;15.60;33.30;;;;;;5078784;28;20047;-72
2021/04/08 08:51:26;;;;;;;3.60;2.42;;;15.60;32.70;;;;;;5078538;28;20425;-72
2021/04/08 08:53:54;;;;;;;3.30;1.83;;;15.70;32.60;;;;;;5060951;28;20052;-72
2021/04/08 08:56:25;;;;;;;4.05;2.63;;;15.50;33.40;;;;;;5078489;28;20028;-72
2021/04/08 08:58:53;;;;;;;3.53;2.05;;;15.30;35.30;;;;;;5078729;28;20024;-72
2021/04/08 09:01:20;;;;;;;5.00;2.10;;;15.00;34.50;;;;;;5078462;28;20350;-72
2021/04/08 09:03:46;;;;;;;3.47;2.20;;;15.30;33.60;;;;;;5078358;28;20021;-72
2021/04/08 09:06:13;;;;;;;5.28;2.35;;;15.70;35.40;;;;;;5078295;28;20026;-72
2021/04/08 09:08:42;;;;;;;5.10;1.98;;;15.90;34.20;;;;;;5078468;28;20103;-72
2021/04/08 09:11:13;;;;;;;2.53;1.83;;;15.80;33.50;;;;;;5078218;28;20029;-72
2021/04/08 09:13:40;;;;;;;6.25;2.22;;;16.00;32.40;;;;;;5078406;28;20125;-72
2021/04/08 09:16:14;;;;;;;7.22;2.00;;;16.20;33.50;;;;;;5078359;28;20016;-72
2021/04/08 09:18:40;;;;;;;4.18;1.92;;;16.00;32.60;;;;;;5077673;28;20031;-72
2021/04/08 09:21:07;;;;;;;4.75;2.05;;;15.70;34.10;;;;;;5078079;28;20020;-72
2021/04/08 09:23:33;;;;;;;4.55;2.30;;;15.70;33.70;;;;;;5060349;28;20434;-72
2021/04/08 09:26:02;;;;;;;2.65;1.80;;;15.90;34.10;;;;;;5077861;28;20123;-72
2021/04/08 09:28:38;;;;;;;2.55;1.95;;;16.00;32.60;;;;;;5077876;28;20040;-72
2021/04/08 09:31:09;;;;;;;3.42;1.80;;;16.00;33.50;;;;;;5078471;28;20028;-72
2021/04/08 09:33:43;;;;;;;5.18;2.05;;;16.00;33.00;;;;;;5077963;28;20089;-72
2021/04/08 09:36:34;;;;;;;3.47;2.17;;;16.20;33.10;;;;;;5077797;28;20036;-72
2021/04/08 09:39:00;;;;;;;2.97;1.80;;;16.40;32.40;;;;;;5068463;28;20120;-72
2021/04/08 09:41:55;;;;;;;2.63;1.80;;;16.60;32.80;;;;;;5077891;28;20421;-72
2021/04/08 09:44:21;;;;;;;4.10;1.83;;;16.70;33.00;;;;;;5077461;28;20032;-72
2021/04/08 09:46:54;;;;;;;3.25;1.90;;;16.70;31.20;;;;;;5077574;28;20020;-72
2021/04/08 09:49:38;;;;;;;3.47;1.92;;;16.60;34.00;;;;;;5077547;28;20039;-72
2021/04/08 09:52:05;;;;;;;3.38;1.90;;;16.90;31.70;;;;;;5077961;28;20028;-72
2021/04/08 09:54:40;;;;;;;3.55;2.13;;;17.00;33.20;;;;;;5077341;28;20041;-72
2021/04/08 09:57:06;;;;;;;2.78;1.75;;;17.10;31.00;;;;;;5077346;28;20423;-72
2021/04/08 09:59:56;;;;;;;2.58;1.70;;;17.10;30.30;;;;;;5059617;28;20062;-72
2021/04/08 10:02:23;;;;;;;2.20;1.55;;;16.90;31.20;;;;;;5077528;28;20032;-72
2021/04/08 10:05:03;;;;;;;2.03;1.60;;;16.90;31.80;;;;;;5059421;28;20028;-72
2021/04/08 10:07:29;;;;;;;4.20;1.80;;;16.90;29.50;;;;;;5077228;28;20099;-72
2021/04/08 10:09:55;;;;;;;2.20;1.58;;;17.20;31.30;;;;;;5077196;28;20055;-72
2021/04/08 10:12:32;;;;;;;3.38;1.75;;;17.20;32.40;;;;;;5076900;28;20340;-72
2021/04/08 10:14:58;;;;;;;2.33;1.70;;;16.90;30.30;;;;;;5081185;28;20036;-72
2021/04/08 10:17:40;;;;;;;3.15;2.00;;;17.10;31.30;;;;;;5092860;28;20043;-72
2021/04/08 10:20:08;;;;;;;7.72;2.72;;;17.00;30.30;;;;;;5097345;28;20027;-72
2021/04/08 10:22:44;;;;;;;3.85;2.03;;;16.70;32.90;;;;;;5097321;28;20307;-72
2021/04/08 10:25:11;;;;;;;2.85;2.05;;;16.30;32.30;;;;;;5097170;28;20085;-72
2021/04/08 10:27:38;;;;;;;2.78;2.03;;;16.10;31.80;;;;;;5097153;28;20066;-72
2021/04/08 10:30:16;;;;;;;3.47;2.00;;;16.30;34.00;;;;;;5096382;28;20051;-72
2021/04/08 10:32:42;;;;;;;2.55;1.92;;;16.50;31.40;;;;;;5097269;28;20024;-72
2021/04/08 10:35:26;;;;;;;4.22;2.30;;;16.50;31.70;;;;;;5096938;28;20012;-72
2021/04/08 10:38:06;;;;;;;5.38;2.38;;;17.00;33.30;;;;;;5097242;28;20081;-72
2021/04/08 10:40:33;;;;;;;3.72;2.45;;;17.10;31.20;;;;;;5079367;28;20319;-72
2021/04/08 10:43:16;;;;;;;2.70;2.30;;;17.20;31.80;;;;;;5096970;28;20020;-72
2021/04/08 10:45:54;;;;;;;4.93;2.80;;;17.00;33.40;;;;;;5096896;28;20056;-72
2021/04/08 10:48:21;;;;;;;6.00;2.42;;;16.70;31.80;;;;;;5096870;28;20056;-72
2021/04/08 10:50:47;;;;;;;3.67;2.53;;;16.60;33.20;;;;;;5078701;28;20052;-72
2021/04/08 10:53:17;;;;;;;3.03;2.47;;;16.30;30.80;;;;;;5097067;28;20316;-72
2021/04/08 10:55:43;;;;;;;4.43;2.80;;;16.50;32.50;;;;;;5096731;28;20085;-72
2021/04/08 10:58:28;;;;;;;4.53;2.90;;;16.70;32.30;;;;;;5097099;28;20365;-72
2021/04/08 11:00:57;;;;;;;3.72;2.40;;;16.70;34.20;;;;;;5097041;28;20063;-72
2021/04/08 11:03:23;;;;;;;4.38;2.67;;;16.80;31.90;;;;;;5096677;28;20431;-72
2021/04/08 11:05:49;;;;;;;4.82;2.47;;;16.90;32.30;;;;;;5078857;28;20028;-72
2021/04/08 11:08:15;;;;;;;6.45;2.03;;;17.30;33.90;;;;;;5078718;28;20424;-72
2021/04/08 11:10:42;;;;;;;6.97;2.35;;;17.40;32.40;;;;;;5096585;28;20024;-72
2021/04/08 11:13:10;;;;;;;4.38;2.78;;;17.40;31.30;;;;;;5096636;28;20427;-72
2021/04/08 11:15:38;;;;;;;4.57;2.28;;;17.30;33.90;;;;;;5096462;28;20021;-72
2021/04/08 11:18:14;;;;;;;5.63;2.42;;;17.60;32.80;;;;;;5096815;28;20032;-72
2021/04/08 11:20:42;;;;;;;4.28;2.22;;;17.80;31.10;;;;;;5096621;28;20022;-72
2021/04/08 11:23:09;;;;;;;3.08;2.28;;;17.70;31.60;;;;;;5096472;28;20404;-72
2021/04/08 11:25:37;;;;;;;4.32;2.20;;;17.50;29.50;;;;;;5096443;28;20040;-72
2021/04/08 11:28:05;;;;;;;3.53;2.10;;;16.90;31.80;;;;;;5096719;28;20400;-72
2021/04/08 11:30:34;;;;;;;6.15;2.08;;;17.00;33.40;;;;;;5096489;28;20032;-72
2021/04/08 11:33:01;;;;;;;2.97;1.98;;;17.10;32.20;;;;;;5096461;28;20024;-72
2021/04/08 11:35:29;;;;;;;3.03;2.15;;;16.90;31.80;;;;;;5078390;28;20035;-72
2021/04/08 11:38:17;;;;;;;2.60;1.70;;;16.90;30.10;;;;;;5096322;28;20078;-72
2021/04/08 11:41:04;;;;;;;2.83;1.73;;;17.00;31.70;;;;;;5098127;28;20288;-72
2021/04/08 11:43:33;;;;;;;2.83;1.77;;;16.70;29.50;;;;;;5099312;28;20032;-72
2021/04/08 11:46:03;;;;;;;3.40;1.80;;;16.70;32.00;;;;;;5100426;28;20044;-72
2021/04/08 11:48:43;;;;;;;2.67;1.88;;;16.60;30.60;;;;;;5100168;28;20116;-72
2021/04/08 11:51:09;;;;;;;3.97;1.38;;;16.50;31.80;;;;;;5099953;28;20098;-72
2021/04/08 11:53:43;;;;;;;3.30;1.55;;;16.10;30.20;;;;;;5082114;28;20033;-72
2021/04/08 11:56:26;;;;;;;3.53;1.60;;;16.30;35.90;;;;;;5100184;28;20028;-72
2021/04/08 11:58:52;;;;;;;3.40;1.48;;;16.60;31.10;;;;;;5100129;28;20085;-72
2021/04/08 12:01:19;;;;;;;3.53;1.60;;;16.30;29.50;;;;;;5099889;28;20451;-72
2021/04/08 12:03:47;;;;;;;3.90;1.80;;;16.30;30.30;;;;;;5099757;28;20052;-72
2021/04/08 12:06:16;;;;;;;3.72;1.80;;;16.20;30.20;;;;;;5099709;28;20031;-72
2021/04/08 12:08:43;;;;;;;6.60;1.90;;;15.60;30.00;;;;;;5100017;28;20412;-72
2021/04/08 12:11:10;;;;;;;4.63;1.90;;;15.20;31.90;;;;;;5099670;28;20422;-72
2021/04/08 12:13:36;;;;;;;6.70;1.70;;;15.30;35.70;;;;;;5099796;28;20043;-72
2021/04/08 12:16:05;;;;;;;3.78;2.25;;;15.50;31.30;;;;;;5099554;28;20020;-72
2021/04/08 12:18:31;;;;;;;3.58;1.98;;;15.20;33.00;;;;;;5099585;28;20317;-72
2021/04/08 12:21:07;;;;;;;3.10;1.90;;;15.00;31.60;;;;;;5099490;28;20320;-71
2021/04/08 12:23:36;;;;;;;3.00;2.25;;;14.50;31.40;;;;;;5099769;28;20028;-72
2021/04/08 12:26:02;;;;;;;4.53;2.40;;;14.20;34.60;;;;;;5099809;28;20055;-72
2021/04/08 12:28:28;;;;;;;6.10;2.38;;;14.20;33.90;;;;;;5099696;28;20047;-71
2021/04/08 12:31:02;;;;;;;5.00;2.05;;;14.10;35.70;;;;;;5099417;28;20063;-72
2021/04/08 12:33:28;;;;;;;13.18;2.40;;;14.10;32.10;;;;;;5099349;28;20032;-72
2021/04/08 12:35:54;;;;;;;4.07;2.50;;;13.90;33.90;;;;;;5099141;28;20027;-72
2021/04/08 12:38:20;;;;;;;6.82;2.78;;;13.80;33.20;;;;;;5081495;28;20020;-72
2021/04/08 12:40:46;;;;;;;4.45;2.33;;;13.80;32.10;;;;;;5099169;28;20020;-72
2021/04/08 12:43:12;;;;;;;5.18;2.42;;;13.90;33.80;;;;;;5098997;28;20327;-73
2021/04/08 12:45:38;;;;;;;4.13;2.00;;;13.90;34.40;;;;;;5099263;28;20035;-71
2021/04/08 12:48:05;;;;;;;3.65;2.30;;;14.00;33.40;;;;;;5080983;28;20028;-71
2021/04/08 12:50:31;;;;;;;2.70;1.90;;;14.00;32.80;;;;;;5098744;28;20127;-71
2021/04/08 12:52:57;;;;;;;6.20;2.60;;;13.80;33.00;;;;;;5098171;28;20115;-71
2021/04/08 12:55:25;;;;;;;5.40;2.33;;;13.80;31.30;;;;;;5098655;28;20036;-71
2021/04/08 12:57:56;;;;;;;3.15;2.35;;;13.70;32.50;;;;;;5098775;28;20016;-71
2021/04/08 13:00:23;;;;;;;4.35;2.10;;;13.60;33.20;;;;;;5099006;28;20020;-71
2021/04/08 13:02:49;;;;;;;4.45;2.10;;;13.70;33.40;;;;;;5098919;28;20020;-73